Weston, West Virginia
Current Conditions -  °F | °C
As of 3:55 PM on Friday 31 Oct 2014 (Local Time) from KW22 Reporting Station
Clear Clear  
Wind Chill:   Ceiling: Unl
Heat Index:   Visibility: 9mi
Dew Point:   Wind: 0mph
Humidity: 76%   Direction: NA
Pressure: 29.84"   Gusts: NA
Location:  39.04°N, 80.47°W
Report Text: KW22 311955Z AUTO 00000KT 9SM CLR 06/02 A2984 RMK AO2
Loading
Personal Weather Stations






























Interactive Weather Map
Tropical Storm Tracking
New forecast layout! Learn more

10-Day Weather Forecast

Advertisements
Track Severe Weather on mobile